WetterOnline ( https://www.wetteronline.ch )

Wetter aktuell Stuttgart

Aktuelles Wetter: Schnarrenberg/Stuttgart (315m)

6-stündlich | Neueste Meldungen
Ortszeit Temperatur Wetter
So, 25.02. 1:00 3.0° C wolkenlos
Sa, 24.02. 19:00 5.2° C wolkig
Sa, 24.02. 13:00 8.6° C wolkig
Sa, 24.02. 7:00 3.3° C bedeckt
Sa, 24.02. 1:00 3.1° C wolkig
Fr, 23.02. 19:00 6.5° C bedeckt
Fr, 23.02. 13:00 6.9° C bewölkt
Fr, 23.02. 7:00 4.7° C bedeckt
Ortszeit Temperatur Wetter
So, 25.02. 6:30 1.5° C bedeckt
So, 25.02. 6:20 1.5° C bedeckt
So, 25.02. 6:10 1.5° C bedeckt
So, 25.02. 6:00 1.3° C bedeckt
So, 25.02. 5:50 1.3° C bedeckt
So, 25.02. 5:40 1.5° C bedeckt
So, 25.02. 5:30 1.5° C bedeckt
So, 25.02. 5:00 1.5° C bewölkt
So, 25.02. 4:30 1.5° C leicht bewölkt
So, 25.02. 4:00 1.5° C fast wolkenlos
So, 25.02. 3:30 1.5° C leicht bewölkt
Ortszeit Relative Feuchte Sichtweite
So, 25.02. 1:00 84% 35 km
Sa, 24.02. 19:00 74% >70 km
Sa, 24.02. 13:00 50% 50 km
Sa, 24.02. 7:00 81% >70 km
Sa, 24.02. 1:00 75% 60 km
Fr, 23.02. 19:00 69% 60 km
Fr, 23.02. 13:00 61% >70 km
Fr, 23.02. 7:00 68% >70 km
Ortszeit Relative Feuchte Sichtweite
So, 25.02. 6:30 86% >70 km
So, 25.02. 6:20 86% -
So, 25.02. 6:10 87% -
So, 25.02. 6:00 87% 55 km
So, 25.02. 5:50 87% -
So, 25.02. 5:40 87% -
So, 25.02. 5:30 87% 60 km
So, 25.02. 5:00 88% 55 km
So, 25.02. 4:30 88% 55 km
So, 25.02. 4:00 88% 60 km
So, 25.02. 3:30 90% 55 km
Ortszeit Niederschlagsmenge Niederschlagsart
So, 25.02. 1:00 0.0 l/m2 in 6 Std. -
Sa, 24.02. 19:00 0.1 l/m2 in 12 Std. -
Sa, 24.02. 13:00 0.1 l/m2 in 6 Std. Regen
Sa, 24.02. 7:00 0.1 l/m2 in 12 Std. Regen
Sa, 24.02. 1:00 0.0 l/m2 in 6 Std. -
Fr, 23.02. 19:00 0.2 l/m2 in 12 Std. Regen
Fr, 23.02. 13:00 0.0 l/m2 in 6 Std. -
Fr, 23.02. 7:00 2 l/m2 in 12 Std. Regen
Ortszeit Niederschlagsmenge Niederschlagsart
So, 25.02. 6:30 0.0 l/m2 in 30 Min -
So, 25.02. 6:20 keine Meldung -
So, 25.02. 6:10 keine Meldung -
So, 25.02. 6:00 0.0 l/m2 in 1 Std. -
So, 25.02. 5:50 keine Meldung -
So, 25.02. 5:40 keine Meldung -
So, 25.02. 5:30 0.0 l/m2 in 30 Min -
So, 25.02. 5:00 0.0 l/m2 in 1 Std. -
So, 25.02. 4:30 0.0 l/m2 in 30 Min -
So, 25.02. 4:00 0.0 l/m2 in 1 Std. -
So, 25.02. 3:30 0.0 l/m2 in 30 Min -
Ortszeit Stärke Spitze Richtung
km/h Bft. km/h Grad Sektor
So, 25.02. 1:00 14 3 29 160° S
Sa, 24.02. 19:00 14 3 32 150° SO
Sa, 24.02. 13:00 18 3 32 200° S
Sa, 24.02. 7:00 7 2 29 150° SO
Sa, 24.02. 1:00 7 2 25 140° SO
Fr, 23.02. 19:00 11 2 32 140° SO
Fr, 23.02. 13:00 17 3 33 180° S
Fr, 23.02. 7:00 9 2 30 180° S
Ortszeit Stärke Spitze Richtung
km/h Bft. km/h Grad Sektor
So, 25.02. 6:30 14 3 18 150° SO
So, 25.02. 6:20 14 3 - 150° SO
So, 25.02. 6:10 14 3 - 160° S
So, 25.02. 6:00 17 3 22 160° S
So, 25.02. 5:50 17 3 - 160° S
So, 25.02. 5:40 18 3 - 160° S
So, 25.02. 5:30 17 3 20 160° S
So, 25.02. 5:00 18 3 22 160° S
So, 25.02. 4:30 18 3 22 160° S
So, 25.02. 4:00 14 3 18 160° S
So, 25.02. 3:30 15 3 17 160° S
Ortszeit Untergrenze Bedeckung Gattung
total tief tief mittel hoch
So, 25.02. 1:00 - 0/8 0/8 - - -
Sa, 24.02. 19:00 1800 m 7/8 1/8 - - -
Sa, 24.02. 13:00 1380 m 7/8 5/8 - - -
Sa, 24.02. 7:00 1800 m 8/8 8/8 - - -
Sa, 24.02. 1:00 2400 m 7/8 2/8 - - -
Fr, 23.02. 19:00 2100 m 8/8 8/8 - - -
Fr, 23.02. 13:00 1800 m 8/8 6/8 - - -
Fr, 23.02. 7:00 5100 m 8/8 8/8 - - -
Ortszeit Bedeckungsgrad in Achtel und Wolkenuntergrenze
So, 25.02. 6:30 8(5400m) 8(6900m)
So, 25.02. 6:20 8(5400m) 8(6900m)
So, 25.02. 6:10 8
So, 25.02. 6:00 5(5700m) 8(6300m) 8(7200m)
So, 25.02. 5:50 5(5700m) 8(6300m) 8(7200m)
So, 25.02. 5:40 8
So, 25.02. 5:30 8(5700m)
So, 25.02. 5:00 7(6000m)
So, 25.02. 4:30 2(6300m)
So, 25.02. 4:00 1(6000m)
So, 25.02. 3:30 2(6300m)
Ortszeit Luftdruck NN (hPa) Tendenz (hPa in 3 Std.)
So, 25.02. 1:00 1009 - 0,2
Sa, 24.02. 19:00 1008 + 1,5
Sa, 24.02. 13:00 1005 + 1,1
Sa, 24.02. 7:00 1002 + 1,1
Sa, 24.02. 1:00 1000 + 0,6
Fr, 23.02. 19:00 999 + 0,2
Fr, 23.02. 13:00 1000 0,0
Fr, 23.02. 7:00 1000 + 0,5
Ortszeit Luftdruck NN (hPa) Tendenz (hPa in 3 Std.)
So, 25.02. 6:30 1008 - 0,6
So, 25.02. 6:20 1008 keine Meldung
So, 25.02. 6:10 1008 keine Meldung
So, 25.02. 6:00 1008 - 0,8
So, 25.02. 5:50 1008 keine Meldung
So, 25.02. 5:40 1008 keine Meldung
So, 25.02. 5:30 1008 - 1,0
So, 25.02. 5:00 1008 - 1,1
So, 25.02. 4:30 1008 - 0,9
So, 25.02. 4:00 1008 - 0,5
So, 25.02. 3:30 1009 - 0,3
Ortszeit Schneehöhe (cm)
So, 25.02. 1:00 0
Sa, 24.02. 19:00 0
Sa, 24.02. 13:00 0
Sa, 24.02. 7:00 0
Sa, 24.02. 1:00 0
Fr, 23.02. 19:00 0
Fr, 23.02. 13:00 0
Fr, 23.02. 7:00 0
Ortszeit Schneehöhe (cm)
So, 25.02. 6:30 0
So, 25.02. 6:20 0
So, 25.02. 6:10 -
So, 25.02. 6:00 0
So, 25.02. 5:50 0
So, 25.02. 5:40 -
So, 25.02. 5:30 0
So, 25.02. 5:00 0
So, 25.02. 4:30 0
So, 25.02. 4:00 0
So, 25.02. 3:30 0
Link zu dieser Seite / Seite empfehlen

Das Wetter in ...